sensor_id;sensor_type;location;lat;lon;timestamp;temperature;humidity
33580;DHT22;19909;43.644;-79.438;2023-05-14T00:00:24;22.30;46.80
33580;DHT22;19909;43.644;-79.438;2023-05-14T00:02:50;22.40;46.90
33580;DHT22;19909;43.644;-79.438;2023-05-14T00:05:16;22.30;46.80
33580;DHT22;19909;43.644;-79.438;2023-05-14T00:07:42;22.40;47.00
33580;DHT22;19909;43.644;-79.438;2023-05-14T00:10:09;22.30;46.90
33580;DHT22;19909;43.644;-79.438;2023-05-14T00:12:35;22.30;46.90
33580;DHT22;19909;43.644;-79.438;2023-05-14T00:15:01;22.30;47.10
33580;DHT22;19909;43.644;-79.438;2023-05-14T00:17:27;22.30;46.90
33580;DHT22;19909;43.644;-79.438;2023-05-14T00:19:53;22.30;46.70
33580;DHT22;19909;43.644;-79.438;2023-05-14T00:22:19;22.30;46.70
33580;DHT22;19909;43.644;-79.438;2023-05-14T00:24:46;22.30;46.80
33580;DHT22;19909;43.644;-79.438;2023-05-14T00:27:12;22.40;46.70
33580;DHT22;19909;43.644;-79.438;2023-05-14T00:29:38;22.40;46.70
33580;DHT22;19909;43.644;-79.438;2023-05-14T00:32:05;22.40;46.80
33580;DHT22;19909;43.644;-79.438;2023-05-14T00:34:31;22.40;46.80
33580;DHT22;19909;43.644;-79.438;2023-05-14T00:36:57;22.30;46.90
33580;DHT22;19909;43.644;-79.438;2023-05-14T00:39:23;22.30;46.80
33580;DHT22;19909;43.644;-79.438;2023-05-14T00:41:49;22.40;46.70
33580;DHT22;19909;43.644;-79.438;2023-05-14T00:44:15;22.40;46.70
33580;DHT22;19909;43.644;-79.438;2023-05-14T00:46:41;22.40;46.80
33580;DHT22;19909;43.644;-79.438;2023-05-14T00:49:08;22.40;46.90
33580;DHT22;19909;43.644;-79.438;2023-05-14T00:51:35;22.40;46.70
33580;DHT22;19909;43.644;-79.438;2023-05-14T00:54:01;22.30;46.70
33580;DHT22;19909;43.644;-79.438;2023-05-14T00:56:27;22.30;46.60
33580;DHT22;19909;43.644;-79.438;2023-05-14T00:58:54;22.40;46.50
33580;DHT22;19909;43.644;-79.438;2023-05-14T01:01:20;22.30;46.40
33580;DHT22;19909;43.644;-79.438;2023-05-14T01:03:47;22.30;46.50
33580;DHT22;19909;43.644;-79.438;2023-05-14T01:06:24;22.30;46.50
33580;DHT22;19909;43.644;-79.438;2023-05-14T01:09:36;22.40;46.50
33580;DHT22;19909;43.644;-79.438;2023-05-14T01:15:15;22.30;46.50
33580;DHT22;19909;43.644;-79.438;2023-05-14T01:17:52;22.40;46.70
33580;DHT22;19909;43.644;-79.438;2023-05-14T01:20:19;22.30;46.50
33580;DHT22;19909;43.644;-79.438;2023-05-14T01:22:46;22.30;46.50
33580;DHT22;19909;43.644;-79.438;2023-05-14T01:25:12;22.30;46.50
33580;DHT22;19909;43.644;-79.438;2023-05-14T01:27:57;22.30;46.40
33580;DHT22;19909;43.644;-79.438;2023-05-14T01:30:35;22.30;46.30
33580;DHT22;19909;43.644;-79.438;2023-05-14T01:33:05;22.30;46.40
33580;DHT22;19909;43.644;-79.438;2023-05-14T01:35:35;22.30;46.50
33580;DHT22;19909;43.644;-79.438;2023-05-14T01:38:04;22.30;46.20
33580;DHT22;19909;43.644;-79.438;2023-05-14T01:40:32;22.30;46.50
33580;DHT22;19909;43.644;-79.438;2023-05-14T01:42:59;22.30;46.50
33580;DHT22;19909;43.644;-79.438;2023-05-14T01:45:25;22.30;46.40
33580;DHT22;19909;43.644;-79.438;2023-05-14T01:47:52;22.30;46.50
33580;DHT22;19909;43.644;-79.438;2023-05-14T01:50:19;22.30;46.50
33580;DHT22;19909;43.644;-79.438;2023-05-14T01:52:45;22.30;46.20
33580;DHT22;19909;43.644;-79.438;2023-05-14T01:55:13;22.30;46.90
33580;DHT22;19909;43.644;-79.438;2023-05-14T01:57:40;22.30;46.10
33580;DHT22;19909;43.644;-79.438;2023-05-14T02:00:07;22.30;46.20
33580;DHT22;19909;43.644;-79.438;2023-05-14T02:02:34;22.30;46.10
33580;DHT22;19909;43.644;-79.438;2023-05-14T02:05:00;22.30;46.30
33580;DHT22;19909;43.644;-79.438;2023-05-14T02:07:26;22.30;46.20
33580;DHT22;19909;43.644;-79.438;2023-05-14T02:09:52;22.30;46.10
33580;DHT22;19909;43.644;-79.438;2023-05-14T02:12:18;22.30;46.40
33580;DHT22;19909;43.644;-79.438;2023-05-14T02:14:44;22.30;46.50
33580;DHT22;19909;43.644;-79.438;2023-05-14T02:17:10;22.30;46.20
33580;DHT22;19909;43.644;-79.438;2023-05-14T02:19:40;22.30;46.20
33580;DHT22;19909;43.644;-79.438;2023-05-14T02:22:06;22.30;45.90
33580;DHT22;19909;43.644;-79.438;2023-05-14T02:24:32;22.30;46.20
33580;DHT22;19909;43.644;-79.438;2023-05-14T02:26:59;22.30;46.10
33580;DHT22;19909;43.644;-79.438;2023-05-14T02:29:26;22.30;46.00
33580;DHT22;19909;43.644;-79.438;2023-05-14T02:31:52;22.30;46.10
33580;DHT22;19909;43.644;-79.438;2023-05-14T02:34:19;22.30;46.10
33580;DHT22;19909;43.644;-79.438;2023-05-14T02:36:45;22.30;46.20
33580;DHT22;19909;43.644;-79.438;2023-05-14T02:39:11;22.30;46.20
33580;DHT22;19909;43.644;-79.438;2023-05-14T02:41:37;22.30;46.30
33580;DHT22;19909;43.644;-79.438;2023-05-14T02:44:03;22.30;46.40
33580;DHT22;19909;43.644;-79.438;2023-05-14T02:46:33;22.30;46.20
33580;DHT22;19909;43.644;-79.438;2023-05-14T02:48:59;22.30;46.20
33580;DHT22;19909;43.644;-79.438;2023-05-14T02:51:25;22.30;45.80
33580;DHT22;19909;43.644;-79.438;2023-05-14T02:53:51;22.30;45.90
33580;DHT22;19909;43.644;-79.438;2023-05-14T02:56:18;22.30;46.00
33580;DHT22;19909;43.644;-79.438;2023-05-14T02:58:44;22.30;46.00
33580;DHT22;19909;43.644;-79.438;2023-05-14T03:01:10;22.30;46.00
33580;DHT22;19909;43.644;-79.438;2023-05-14T03:03:36;22.30;46.20
33580;DHT22;19909;43.644;-79.438;2023-05-14T03:06:04;22.30;46.20
33580;DHT22;19909;43.644;-79.438;2023-05-14T03:08:30;22.30;46.20
33580;DHT22;19909;43.644;-79.438;2023-05-14T03:10:56;22.30;45.70
33580;DHT22;19909;43.644;-79.438;2023-05-14T03:13:22;22.30;46.30
33580;DHT22;19909;43.644;-79.438;2023-05-14T03:15:48;22.30;45.50
33580;DHT22;19909;43.644;-79.438;2023-05-14T03:18:19;22.20;45.60
33580;DHT22;19909;43.644;-79.438;2023-05-14T03:20:45;22.30;46.00
33580;DHT22;19909;43.644;-79.438;2023-05-14T03:23:12;22.30;45.90
33580;DHT22;19909;43.644;-79.438;2023-05-14T03:25:39;22.30;46.00
33580;DHT22;19909;43.644;-79.438;2023-05-14T03:28:05;22.30;45.90
33580;DHT22;19909;43.644;-79.438;2023-05-14T03:30:32;22.30;45.80
33580;DHT22;19909;43.644;-79.438;2023-05-14T03:32:58;22.30;45.80
33580;DHT22;19909;43.644;-79.438;2023-05-14T03:35:24;22.30;46.00
33580;DHT22;19909;43.644;-79.438;2023-05-14T03:37:50;22.30;46.10
33580;DHT22;19909;43.644;-79.438;2023-05-14T03:40:17;22.30;45.90
33580;DHT22;19909;43.644;-79.438;2023-05-14T03:42:44;22.30;45.90
33580;DHT22;19909;43.644;-79.438;2023-05-14T03:45:10;22.30;46.00
33580;DHT22;19909;43.644;-79.438;2023-05-14T03:47:36;22.30;46.30
33580;DHT22;19909;43.644;-79.438;2023-05-14T03:50:02;22.30;45.80
33580;DHT22;19909;43.644;-79.438;2023-05-14T03:52:28;22.30;45.80
33580;DHT22;19909;43.644;-79.438;2023-05-14T03:54:55;22.30;45.90
33580;DHT22;19909;43.644;-79.438;2023-05-14T03:57:21;22.30;45.90
33580;DHT22;19909;43.644;-79.438;2023-05-14T03:59:47;22.30;45.70
33580;DHT22;19909;43.644;-79.438;2023-05-14T04:02:13;22.30;45.70
33580;DHT22;19909;43.644;-79.438;2023-05-14T04:04:40;22.30;45.90
33580;DHT22;19909;43.644;-79.438;2023-05-14T04:07:07;22.30;45.90
33580;DHT22;19909;43.644;-79.438;2023-05-14T04:09:33;22.30;45.90
33580;DHT22;19909;43.644;-79.438;2023-05-14T04:11:59;22.30;45.80
33580;DHT22;19909;43.644;-79.438;2023-05-14T04:14:26;22.30;45.90
33580;DHT22;19909;43.644;-79.438;2023-05-14T04:16:52;22.30;46.00
33580;DHT22;19909;43.644;-79.438;2023-05-14T04:19:18;22.30;46.00
33580;DHT22;19909;43.644;-79.438;2023-05-14T04:21:44;22.30;45.70
33580;DHT22;19909;43.644;-79.438;2023-05-14T04:24:10;22.30;45.70
33580;DHT22;19909;43.644;-79.438;2023-05-14T04:26:36;22.30;45.70
33580;DHT22;19909;43.644;-79.438;2023-05-14T04:29:02;22.30;45.60
33580;DHT22;19909;43.644;-79.438;2023-05-14T04:31:29;22.30;45.50
33580;DHT22;19909;43.644;-79.438;2023-05-14T04:33:56;22.30;45.70
33580;DHT22;19909;43.644;-79.438;2023-05-14T04:36:22;22.30;45.90
33580;DHT22;19909;43.644;-79.438;2023-05-14T04:38:48;22.30;45.50
33580;DHT22;19909;43.644;-79.438;2023-05-14T04:41:14;22.30;45.20
33580;DHT22;19909;43.644;-79.438;2023-05-14T04:43:40;22.30;45.80
33580;DHT22;19909;43.644;-79.438;2023-05-14T04:46:06;22.30;45.90
33580;DHT22;19909;43.644;-79.438;2023-05-14T04:48:34;22.30;45.80
33580;DHT22;19909;43.644;-79.438;2023-05-14T04:51:00;22.30;45.70
33580;DHT22;19909;43.644;-79.438;2023-05-14T04:53:26;22.30;45.40
33580;DHT22;19909;43.644;-79.438;2023-05-14T04:55:52;22.20;45.50
33580;DHT22;19909;43.644;-79.438;2023-05-14T04:58:18;22.30;45.30
33580;DHT22;19909;43.644;-79.438;2023-05-14T05:00:44;22.30;45.40
33580;DHT22;19909;43.644;-79.438;2023-05-14T05:03:11;22.30;45.70
33580;DHT22;19909;43.644;-79.438;2023-05-14T05:05:37;22.30;45.70
33580;DHT22;19909;43.644;-79.438;2023-05-14T05:08:03;22.30;45.60
33580;DHT22;19909;43.644;-79.438;2023-05-14T05:10:29;22.30;45.60
33580;DHT22;19909;43.644;-79.438;2023-05-14T05:12:55;22.20;45.70
33580;DHT22;19909;43.644;-79.438;2023-05-14T05:15:22;22.30;45.70
33580;DHT22;19909;43.644;-79.438;2023-05-14T05:17:48;22.30;45.70
33580;DHT22;19909;43.644;-79.438;2023-05-14T05:20:14;22.20;45.50
33580;DHT22;19909;43.644;-79.438;2023-05-14T05:22:40;22.20;45.00
33580;DHT22;19909;43.644;-79.438;2023-05-14T05:25:06;22.20;45.10
33580;DHT22;19909;43.644;-79.438;2023-05-14T05:27:33;22.20;45.30
33580;DHT22;19909;43.644;-79.438;2023-05-14T05:30:03;22.20;45.40
33580;DHT22;19909;43.644;-79.438;2023-05-14T05:32:29;22.20;45.50
33580;DHT22;19909;43.644;-79.438;2023-05-14T05:34:56;22.30;45.50
33580;DHT22;19909;43.644;-79.438;2023-05-14T05:37:22;22.20;45.60
33580;DHT22;19909;43.644;-79.438;2023-05-14T05:39:48;22.20;45.50
33580;DHT22;19909;43.644;-79.438;2023-05-14T05:42:14;22.30;45.50
33580;DHT22;19909;43.644;-79.438;2023-05-14T05:44:40;22.20;45.20
33580;DHT22;19909;43.644;-79.438;2023-05-14T05:47:06;22.20;45.40
33580;DHT22;19909;43.644;-79.438;2023-05-14T05:49:32;22.20;45.40
33580;DHT22;19909;43.644;-79.438;2023-05-14T05:51:58;22.20;45.50
33580;DHT22;19909;43.644;-79.438;2023-05-14T05:54:24;22.20;45.50
33580;DHT22;19909;43.644;-79.438;2023-05-14T05:56:52;22.20;45.30
33580;DHT22;19909;43.644;-79.438;2023-05-14T05:59:18;22.20;45.30
33580;DHT22;19909;43.644;-79.438;2023-05-14T06:01:44;22.20;45.30
33580;DHT22;19909;43.644;-79.438;2023-05-14T06:04:10;22.20;45.50
33580;DHT22;19909;43.644;-79.438;2023-05-14T06:06:36;22.20;46.10
33580;DHT22;19909;43.644;-79.438;2023-05-14T06:09:02;22.20;45.50
33580;DHT22;19909;43.644;-79.438;2023-05-14T06:11:31;22.20;45.60
33580;DHT22;19909;43.644;-79.438;2023-05-14T06:13:57;22.20;45.50
33580;DHT22;19909;43.644;-79.438;2023-05-14T06:16:23;22.20;45.50
33580;DHT22;19909;43.644;-79.438;2023-05-14T06:18:50;22.10;45.60
33580;DHT22;19909;43.644;-79.438;2023-05-14T06:21:17;22.10;45.60
33580;DHT22;19909;43.644;-79.438;2023-05-14T06:23:44;22.20;45.40
33580;DHT22;19909;43.644;-79.438;2023-05-14T06:26:10;22.20;45.40
33580;DHT22;19909;43.644;-79.438;2023-05-14T06:28:36;22.20;45.20
33580;DHT22;19909;43.644;-79.438;2023-05-14T06:31:02;22.20;45.20
33580;DHT22;19909;43.644;-79.438;2023-05-14T06:33:28;22.20;45.30
33580;DHT22;19909;43.644;-79.438;2023-05-14T06:35:59;22.20;45.20
33580;DHT22;19909;43.644;-79.438;2023-05-14T06:38:26;22.20;45.40
33580;DHT22;19909;43.644;-79.438;2023-05-14T06:40:52;22.20;45.50
33580;DHT22;19909;43.644;-79.438;2023-05-14T06:43:18;22.20;45.10
33580;DHT22;19909;43.644;-79.438;2023-05-14T06:45:48;22.20;45.00
33580;DHT22;19909;43.644;-79.438;2023-05-14T06:48:14;22.20;45.00
33580;DHT22;19909;43.644;-79.438;2023-05-14T06:50:41;22.20;45.10
33580;DHT22;19909;43.644;-79.438;2023-05-14T06:53:07;22.20;45.10
33580;DHT22;19909;43.644;-79.438;2023-05-14T06:55:34;22.20;45.20
33580;DHT22;19909;43.644;-79.438;2023-05-14T06:58:00;22.20;45.10
33580;DHT22;19909;43.644;-79.438;2023-05-14T07:00:27;22.30;45.20
33580;DHT22;19909;43.644;-79.438;2023-05-14T07:02:53;22.20;45.00
33580;DHT22;19909;43.644;-79.438;2023-05-14T07:05:19;22.20;45.20
33580;DHT22;19909;43.644;-79.438;2023-05-14T07:07:45;22.20;45.30
33580;DHT22;19909;43.644;-79.438;2023-05-14T07:10:11;22.20;45.00
33580;DHT22;19909;43.644;-79.438;2023-05-14T07:12:37;22.20;45.30
33580;DHT22;19909;43.644;-79.438;2023-05-14T07:15:04;22.20;45.00
33580;DHT22;19909;43.644;-79.438;2023-05-14T07:17:30;22.20;45.10
33580;DHT22;19909;43.644;-79.438;2023-05-14T07:19:56;22.20;45.30
33580;DHT22;19909;43.644;-79.438;2023-05-14T07:22:22;22.20;45.10
33580;DHT22;19909;43.644;-79.438;2023-05-14T07:24:49;22.20;45.20
33580;DHT22;19909;43.644;-79.438;2023-05-14T07:27:15;22.20;45.20
33580;DHT22;19909;43.644;-79.438;2023-05-14T07:29:44;22.20;45.00
33580;DHT22;19909;43.644;-79.438;2023-05-14T07:32:10;22.20;45.00
33580;DHT22;19909;43.644;-79.438;2023-05-14T07:34:36;22.20;44.90
33580;DHT22;19909;43.644;-79.438;2023-05-14T07:37:03;22.20;45.00
33580;DHT22;19909;43.644;-79.438;2023-05-14T07:39:29;22.20;45.20
33580;DHT22;19909;43.644;-79.438;2023-05-14T07:41:55;22.20;45.10
33580;DHT22;19909;43.644;-79.438;2023-05-14T07:44:21;22.20;45.20
33580;DHT22;19909;43.644;-79.438;2023-05-14T07:46:47;22.20;45.20
33580;DHT22;19909;43.644;-79.438;2023-05-14T07:49:13;22.20;45.20
33580;DHT22;19909;43.644;-79.438;2023-05-14T07:51:40;22.20;45.10
33580;DHT22;19909;43.644;-79.438;2023-05-14T07:54:06;22.20;45.20
33580;DHT22;19909;43.644;-79.438;2023-05-14T07:56:32;22.20;45.20
33580;DHT22;19909;43.644;-79.438;2023-05-14T07:58:58;22.20;45.00
33580;DHT22;19909;43.644;-79.438;2023-05-14T08:01:24;22.20;45.00
33580;DHT22;19909;43.644;-79.438;2023-05-14T08:03:51;22.20;45.10
33580;DHT22;19909;43.644;-79.438;2023-05-14T08:06:17;22.20;44.90
33580;DHT22;19909;43.644;-79.438;2023-05-14T08:08:45;22.20;45.10
33580;DHT22;19909;43.644;-79.438;2023-05-14T08:11:11;22.20;45.10
33580;DHT22;19909;43.644;-79.438;2023-05-14T08:13:37;22.20;45.20
33580;DHT22;19909;43.644;-79.438;2023-05-14T08:16:04;22.20;45.20
33580;DHT22;19909;43.644;-79.438;2023-05-14T08:18:30;22.20;45.10
33580;DHT22;19909;43.644;-79.438;2023-05-14T08:20:57;22.20;45.20
33580;DHT22;19909;43.644;-79.438;2023-05-14T08:23:23;22.10;45.00
33580;DHT22;19909;43.644;-79.438;2023-05-14T08:25:49;22.10;45.10
33580;DHT22;19909;43.644;-79.438;2023-05-14T08:28:15;22.10;44.90
33580;DHT22;19909;43.644;-79.438;2023-05-14T08:30:41;22.10;44.90
33580;DHT22;19909;43.644;-79.438;2023-05-14T08:33:07;22.10;44.90
33580;DHT22;19909;43.644;-79.438;2023-05-14T08:35:33;22.10;45.00
33580;DHT22;19909;43.644;-79.438;2023-05-14T08:37:59;22.20;45.00
33580;DHT22;19909;43.644;-79.438;2023-05-14T08:40:26;22.10;45.10
33580;DHT22;19909;43.644;-79.438;2023-05-14T08:42:53;22.10;44.90
33580;DHT22;19909;43.644;-79.438;2023-05-14T08:45:25;22.20;45.20
33580;DHT22;19909;43.644;-79.438;2023-05-14T08:47:53;22.20;45.20
33580;DHT22;19909;43.644;-79.438;2023-05-14T08:50:20;22.10;45.10
33580;DHT22;19909;43.644;-79.438;2023-05-14T08:52:47;22.10;44.90
33580;DHT22;19909;43.644;-79.438;2023-05-14T08:55:14;22.10;45.00
33580;DHT22;19909;43.644;-79.438;2023-05-14T08:57:40;22.10;44.90
33580;DHT22;19909;43.644;-79.438;2023-05-14T09:00:06;22.10;44.80
33580;DHT22;19909;43.644;-79.438;2023-05-14T09:02:34;22.10;44.90
33580;DHT22;19909;43.644;-79.438;2023-05-14T09:05:01;22.10;44.80
33580;DHT22;19909;43.644;-79.438;2023-05-14T09:07:28;22.10;44.90
33580;DHT22;19909;43.644;-79.438;2023-05-14T09:09:55;22.10;44.80
33580;DHT22;19909;43.644;-79.438;2023-05-14T09:12:21;22.10;44.90
33580;DHT22;19909;43.644;-79.438;2023-05-14T09:14:48;22.10;44.90
33580;DHT22;19909;43.644;-79.438;2023-05-14T09:17:15;22.10;44.90
33580;DHT22;19909;43.644;-79.438;2023-05-14T09:19:43;22.10;44.90
33580;DHT22;19909;43.644;-79.438;2023-05-14T09:22:14;22.10;44.90
33580;DHT22;19909;43.644;-79.438;2023-05-14T09:24:41;22.10;45.00
33580;DHT22;19909;43.644;-79.438;2023-05-14T09:27:08;22.10;44.80
33580;DHT22;19909;43.644;-79.438;2023-05-14T09:29:34;22.00;44.70
33580;DHT22;19909;43.644;-79.438;2023-05-14T09:32:02;22.00;44.70
33580;DHT22;19909;43.644;-79.438;2023-05-14T09:34:32;22.10;44.80
33580;DHT22;19909;43.644;-79.438;2023-05-14T09:37:01;22.10;44.80
33580;DHT22;19909;43.644;-79.438;2023-05-14T09:39:28;22.10;44.80
33580;DHT22;19909;43.644;-79.438;2023-05-14T09:41:55;22.00;44.80
33580;DHT22;19909;43.644;-79.438;2023-05-14T09:44:22;22.10;44.90
33580;DHT22;19909;43.644;-79.438;2023-05-14T09:46:49;22.00;44.90
33580;DHT22;19909;43.644;-79.438;2023-05-14T09:49:16;22.00;44.80
33580;DHT22;19909;43.644;-79.438;2023-05-14T09:51:42;22.00;44.80
33580;DHT22;19909;43.644;-79.438;2023-05-14T09:54:08;22.00;44.90
33580;DHT22;19909;43.644;-79.438;2023-05-14T09:56:35;22.00;44.90
33580;DHT22;19909;43.644;-79.438;2023-05-14T09:59:02;22.00;44.60
33580;DHT22;19909;43.644;-79.438;2023-05-14T10:01:30;22.00;44.60
33580;DHT22;19909;43.644;-79.438;2023-05-14T10:03:57;22.00;44.70
33580;DHT22;19909;43.644;-79.438;2023-05-14T10:06:29;22.00;44.70
33580;DHT22;19909;43.644;-79.438;2023-05-14T10:08:57;22.00;44.70
33580;DHT22;19909;43.644;-79.438;2023-05-14T10:11:29;22.00;44.80
33580;DHT22;19909;43.644;-79.438;2023-05-14T10:16:36;22.00;44.80
33580;DHT22;19909;43.644;-79.438;2023-05-14T10:19:08;22.00;44.90
33580;DHT22;19909;43.644;-79.438;2023-05-14T10:21:37;22.00;44.90
33580;DHT22;19909;43.644;-79.438;2023-05-14T10:24:04;22.00;45.50
33580;DHT22;19909;43.644;-79.438;2023-05-14T10:26:37;22.00;44.90
33580;DHT22;19909;43.644;-79.438;2023-05-14T10:29:09;22.00;44.50
33580;DHT22;19909;43.644;-79.438;2023-05-14T10:31:48;22.00;44.60
33580;DHT22;19909;43.644;-79.438;2023-05-14T10:34:38;22.00;44.60
33580;DHT22;19909;43.644;-79.438;2023-05-14T10:37:12;22.00;44.80
33580;DHT22;19909;43.644;-79.438;2023-05-14T10:39:47;22.00;44.80
33580;DHT22;19909;43.644;-79.438;2023-05-14T10:47:15;22.00;44.70
33580;DHT22;19909;43.644;-79.438;2023-05-14T10:49:46;22.00;44.80
33580;DHT22;19909;43.644;-79.438;2023-05-14T10:52:17;22.00;44.70
33580;DHT22;19909;43.644;-79.438;2023-05-14T10:54:58;22.00;44.80
33580;DHT22;19909;43.644;-79.438;2023-05-14T10:57:26;21.90;44.60
33580;DHT22;19909;43.644;-79.438;2023-05-14T10:59:55;22.00;44.60
33580;DHT22;19909;43.644;-79.438;2023-05-14T11:02:27;21.90;44.50
33580;DHT22;19909;43.644;-79.438;2023-05-14T11:04:58;21.90;44.60
33580;DHT22;19909;43.644;-79.438;2023-05-14T11:07:31;22.00;44.50
33580;DHT22;19909;43.644;-79.438;2023-05-14T11:10:08;22.00;44.60
33580;DHT22;19909;43.644;-79.438;2023-05-14T11:12:38;21.90;44.70
33580;DHT22;19909;43.644;-79.438;2023-05-14T11:15:06;21.90;44.50
33580;DHT22;19909;43.644;-79.438;2023-05-14T11:17:35;21.90;44.70
33580;DHT22;19909;43.644;-79.438;2023-05-14T11:20:02;21.90;44.70
33580;DHT22;19909;43.644;-79.438;2023-05-14T11:22:28;21.90;44.70
33580;DHT22;19909;43.644;-79.438;2023-05-14T11:24:54;21.90;44.70
33580;DHT22;19909;43.644;-79.438;2023-05-14T11:27:21;21.90;44.60
33580;DHT22;19909;43.644;-79.438;2023-05-14T11:29:49;21.90;44.60
33580;DHT22;19909;43.644;-79.438;2023-05-14T11:32:16;21.90;44.40
33580;DHT22;19909;43.644;-79.438;2023-05-14T11:34:43;21.90;44.50
33580;DHT22;19909;43.644;-79.438;2023-05-14T11:37:11;21.90;44.50
33580;DHT22;19909;43.644;-79.438;2023-05-14T11:39:38;21.90;44.70
33580;DHT22;19909;43.644;-79.438;2023-05-14T11:42:09;21.90;44.60
33580;DHT22;19909;43.644;-79.438;2023-05-14T11:44:40;21.90;44.50
33580;DHT22;19909;43.644;-79.438;2023-05-14T11:47:07;21.90;44.60
33580;DHT22;19909;43.644;-79.438;2023-05-14T11:49:33;21.90;44.60
33580;DHT22;19909;43.644;-79.438;2023-05-14T11:52:02;21.90;44.70
33580;DHT22;19909;43.644;-79.438;2023-05-14T11:54:29;21.90;44.80
33580;DHT22;19909;43.644;-79.438;2023-05-14T11:56:56;21.90;44.70
33580;DHT22;19909;43.644;-79.438;2023-05-14T11:59:30;21.90;44.40
33580;DHT22;19909;43.644;-79.438;2023-05-14T12:02:01;21.90;44.50
33580;DHT22;19909;43.644;-79.438;2023-05-14T12:04:28;21.90;44.70
33580;DHT22;19909;43.644;-79.438;2023-05-14T12:06:57;21.90;44.60
33580;DHT22;19909;43.644;-79.438;2023-05-14T12:09:24;21.90;44.60
33580;DHT22;19909;43.644;-79.438;2023-05-14T12:11:51;21.90;44.60
33580;DHT22;19909;43.644;-79.438;2023-05-14T12:14:22;21.90;44.70
33580;DHT22;19909;43.644;-79.438;2023-05-14T12:16:49;21.90;44.50
33580;DHT22;19909;43.644;-79.438;2023-05-14T12:19:17;21.90;44.70
33580;DHT22;19909;43.644;-79.438;2023-05-14T12:21:46;21.90;44.70
33580;DHT22;19909;43.644;-79.438;2023-05-14T12:24:15;21.90;44.80
33580;DHT22;19909;43.644;-79.438;2023-05-14T12:26:46;21.90;44.70
33580;DHT22;19909;43.644;-79.438;2023-05-14T12:29:13;21.90;44.50
33580;DHT22;19909;43.644;-79.438;2023-05-14T12:31:48;21.90;44.50
33580;DHT22;19909;43.644;-79.438;2023-05-14T12:34:15;21.90;44.50
33580;DHT22;19909;43.644;-79.438;2023-05-14T12:36:42;21.90;44.70
33580;DHT22;19909;43.644;-79.438;2023-05-14T12:39:09;21.90;44.60
33580;DHT22;19909;43.644;-79.438;2023-05-14T12:41:36;21.90;44.60
33580;DHT22;19909;43.644;-79.438;2023-05-14T12:44:03;21.90;44.70
33580;DHT22;19909;43.644;-79.438;2023-05-14T12:46:30;21.90;44.70
33580;DHT22;19909;43.644;-79.438;2023-05-14T12:48:57;21.90;44.70
33580;DHT22;19909;43.644;-79.438;2023-05-14T12:51:24;21.90;45.20
33580;DHT22;19909;43.644;-79.438;2023-05-14T12:53:51;21.90;44.70
33580;DHT22;19909;43.644;-79.438;2023-05-14T12:56:19;21.80;44.70
33580;DHT22;19909;43.644;-79.438;2023-05-14T12:58:46;21.90;44.50
33580;DHT22;19909;43.644;-79.438;2023-05-14T13:01:12;21.90;44.60
33580;DHT22;19909;43.644;-79.438;2023-05-14T13:03:38;21.80;44.40
33580;DHT22;19909;43.644;-79.438;2023-05-14T13:06:04;21.80;44.60
33580;DHT22;19909;43.644;-79.438;2023-05-14T13:08:31;21.90;44.60
33580;DHT22;19909;43.644;-79.438;2023-05-14T13:10:57;21.80;44.70
33580;DHT22;19909;43.644;-79.438;2023-05-14T13:13:23;21.90;44.70
33580;DHT22;19909;43.644;-79.438;2023-05-14T13:15:49;21.90;44.70
33580;DHT22;19909;43.644;-79.438;2023-05-14T13:18:16;21.90;44.70
33580;DHT22;19909;43.644;-79.438;2023-05-14T13:20:43;21.80;44.70
33580;DHT22;19909;43.644;-79.438;2023-05-14T13:23:10;21.80;44.70
33580;DHT22;19909;43.644;-79.438;2023-05-14T13:25:36;21.80;44.90
33580;DHT22;19909;43.644;-79.438;2023-05-14T13:28:02;21.90;44.60
33580;DHT22;19909;43.644;-79.438;2023-05-14T13:30:28;21.80;44.60
33580;DHT22;19909;43.644;-79.438;2023-05-14T13:32:54;21.80;44.50
33580;DHT22;19909;43.644;-79.438;2023-05-14T13:35:20;21.80;44.70
33580;DHT22;19909;43.644;-79.438;2023-05-14T13:37:47;21.90;44.70
33580;DHT22;19909;43.644;-79.438;2023-05-14T13:40:13;21.80;44.70
33580;DHT22;19909;43.644;-79.438;2023-05-14T13:42:39;21.80;44.70
33580;DHT22;19909;43.644;-79.438;2023-05-14T13:45:06;21.80;44.70
33580;DHT22;19909;43.644;-79.438;2023-05-14T13:47:32;21.80;44.80
33580;DHT22;19909;43.644;-79.438;2023-05-14T13:49:59;21.80;45.00
33580;DHT22;19909;43.644;-79.438;2023-05-14T13:52:25;21.80;44.80
33580;DHT22;19909;43.644;-79.438;2023-05-14T13:54:51;21.80;44.80
33580;DHT22;19909;43.644;-79.438;2023-05-14T13:57:21;21.80;44.80
33580;DHT22;19909;43.644;-79.438;2023-05-14T13:59:47;21.80;44.60
33580;DHT22;19909;43.644;-79.438;2023-05-14T14:02:14;21.80;44.50
33580;DHT22;19909;43.644;-79.438;2023-05-14T14:04:40;21.80;44.50
33580;DHT22;19909;43.644;-79.438;2023-05-14T14:07:06;21.80;44.70
33580;DHT22;19909;43.644;-79.438;2023-05-14T14:09:33;21.80;44.80
33580;DHT22;19909;43.644;-79.438;2023-05-14T14:12:05;21.80;44.80
33580;DHT22;19909;43.644;-79.438;2023-05-14T14:14:31;21.80;44.80
33580;DHT22;19909;43.644;-79.438;2023-05-14T14:16:57;21.80;44.80
33580;DHT22;19909;43.644;-79.438;2023-05-14T14:19:23;21.80;44.70
33580;DHT22;19909;43.644;-79.438;2023-05-14T14:21:49;21.80;45.20
33580;DHT22;19909;43.644;-79.438;2023-05-14T14:24:15;21.80;44.90
33580;DHT22;19909;43.644;-79.438;2023-05-14T14:26:41;21.80;44.80
33580;DHT22;19909;43.644;-79.438;2023-05-14T14:29:07;21.80;44.60
33580;DHT22;19909;43.644;-79.438;2023-05-14T14:31:36;21.80;44.70
33580;DHT22;19909;43.644;-79.438;2023-05-14T14:34:02;21.80;44.60
33580;DHT22;19909;43.644;-79.438;2023-05-14T14:36:28;21.80;44.60
33580;DHT22;19909;43.644;-79.438;2023-05-14T14:38:55;21.80;44.70
33580;DHT22;19909;43.644;-79.438;2023-05-14T14:41:21;21.80;44.80
33580;DHT22;19909;43.644;-79.438;2023-05-14T14:43:48;21.80;44.80
33580;DHT22;19909;43.644;-79.438;2023-05-14T14:46:14;21.80;44.80
33580;DHT22;19909;43.644;-79.438;2023-05-14T14:48:40;21.80;44.80
33580;DHT22;19909;43.644;-79.438;2023-05-14T14:51:07;21.80;44.80
33580;DHT22;19909;43.644;-79.438;2023-05-14T14:53:34;21.80;44.80
33580;DHT22;19909;43.644;-79.438;2023-05-14T14:56:01;21.80;44.80
33580;DHT22;19909;43.644;-79.438;2023-05-14T14:58:28;21.80;44.60
33580;DHT22;19909;43.644;-79.438;2023-05-14T15:00:56;21.80;44.70
33580;DHT22;19909;43.644;-79.438;2023-05-14T15:03:23;21.80;44.60
33580;DHT22;19909;43.644;-79.438;2023-05-14T15:05:50;21.80;44.80
33580;DHT22;19909;43.644;-79.438;2023-05-14T15:08:18;21.80;44.70
33580;DHT22;19909;43.644;-79.438;2023-05-14T15:10:45;21.80;44.70
33580;DHT22;19909;43.644;-79.438;2023-05-14T15:13:11;21.80;44.70